Wetterdaten: Woche 20.04.15 - 26.04.15 (KW17)
Datum Zeit Temp. A. Feuchte A. Luftdruck Regen Wind Richtung Sonnenschein ET UV Solar Taupunkt Windchill Windben Empfang
20.04.2015 00:00 3,6 C 83 % 1022,0 hPa 0,0 l/m 0,0 km/h (0 Bft) N 0,00 h 0,000 mm 0,0 UV-I 0 W/m 0,9 C 3,6 C 0,0 km/h (0 Bft) 0,00 %
20.04.2015 01:00 3,2 C 86 % 1022,5 hPa 0,0 l/m 0,0 km/h (0 Bft) N 0,00 h 0,000 mm 0,0 UV-I 0 W/m 1,0 C 3,2 C 0,0 km/h (0 Bft) 0,00 %
20.04.2015 02:00 2,7 C 87 % 1022,6 hPa 0,0 l/m 0,0 km/h (0 Bft) N 0,00 h 0,000 mm 0,0 UV-I 0 W/m 0,6 C 2,7 C 0,0 km/h (0 Bft) 0,00 %
20.04.2015 03:00 2,0 C 85 % 1022,9 hPa 0,0 l/m 0,0 km/h (0 Bft) N 0,00 h 0,000 mm 0,0 UV-I 0 W/m -0,2 C 2,0 C 0,0 km/h (0 Bft) 0,00 %
20.04.2015 04:00 1,5 C 87 % 1022,9 hPa 0,0 l/m 0,0 km/h (0 Bft) N 0,00 h 0,000 mm 0,0 UV-I 0 W/m -0,3 C 1,5 C 0,0 km/h (0 Bft) 0,00 %
20.04.2015 05:00 1,0 C 90 % 1023,3 hPa 0,0 l/m 0,0 km/h (0 Bft) N 0,00 h 0,000 mm 0,0 UV-I 0 W/m -0,4 C 1,0 C 0,0 km/h (0 Bft) 0,00 %
20.04.2015 06:00 1,6 C 90 % 1023,3 hPa 0,0 l/m 0,0 km/h (0 Bft) N 0,50 h 0,000 mm 0,0 UV-I 40 W/m 0,1 C 1,6 C 0,0 km/h (0 Bft) 0,00 %
20.04.2015 07:00 5,2 C 76 % 1022,1 hPa 0,0 l/m 0,0 km/h (0 Bft) N 1,00 h 0,000 mm 1,0 UV-I 170 W/m 1,3 C 5,2 C 0,0 km/h (0 Bft) 0,00 %
20.04.2015 08:00 7,8 C 68 % 1021,6 hPa 0,0 l/m 0,4 km/h (0 Bft) W-SW 1,00 h 0,000 mm 1,7 UV-I 229 W/m 2,2 C 7,8 C 2,0 km/h (1 Bft) 0,00 %
20.04.2015 09:00 9,8 C 61 % 1021,5 hPa 0,0 l/m 1,8 km/h (1 Bft) SW 0,75 h 0,000 mm 2,7 UV-I 312 W/m 2,6 C 9,8 C 2,0 km/h (1 Bft) 0,00 %
20.04.2015 10:00 12,0 C 52 % 1021,2 hPa 0,0 l/m 0,2 km/h (0 Bft) SW 0,75 h 0,000 mm 3,3 UV-I 415 W/m 2,4 C 12,0 C 1,0 km/h (0 Bft) 0,00 %
20.04.2015 11:00 13,3 C 45 % 1020,7 hPa 0,0 l/m 3,3 km/h (1 Bft) W-SW 1,00 h 0,000 mm 4,7 UV-I 550 W/m 1,5 C 13,2 C 6,9 km/h (2 Bft) 0,00 %
20.04.2015 12:00 14,3 C 42 % 1020,3 hPa 0,0 l/m 4,3 km/h (1 Bft) W-SW 1,00 h 0,000 mm 5,0 UV-I 670 W/m 1,6 C 14,3 C 5,9 km/h (2 Bft) 0,00 %
20.04.2015 13:00 14,9 C 40 % 1019,9 hPa 0,0 l/m 2,3 km/h (1 Bft) W-SW 1,00 h 0,000 mm 5,0 UV-I 709 W/m 1,4 C 14,9 C 5,0 km/h (1 Bft) 0,00 %
20.04.2015 14:00 15,5 C 41 % 1019,6 hPa 0,0 l/m 7,8 km/h (2 Bft) W-SW 1,00 h 0,000 mm 4,3 UV-I 734 W/m 2,1 C 14,3 C 10,0 km/h (2 Bft) 0,00 %
20.04.2015 15:00 16,3 C 37 % 1018,9 hPa 0,0 l/m 4,3 km/h (1 Bft) W-SW 1,00 h 0,000 mm 2,0 UV-I 715 W/m 1,5 C 16,2 C 6,9 km/h (2 Bft) 0,00 %
20.04.2015 16:00 16,3 C 38 % 1018,6 hPa 0,0 l/m 8,3 km/h (2 Bft) W-SW 1,00 h 0,000 mm 2,0 UV-I 665 W/m 2,0 C 14,8 C 12,0 km/h (2 Bft) 0,00 %
20.04.2015 17:00 16,3 C 37 % 1018,4 hPa 0,0 l/m 9,0 km/h (2 Bft) W-SW 1,00 h 0,000 mm 1,3 UV-I 604 W/m 1,6 C 14,9 C 11,9 km/h (2 Bft) 0,00 %
20.04.2015 18:00 15,7 C 39 % 1018,9 hPa 0,0 l/m 8,4 km/h (2 Bft) W-SW 1,00 h 0,000 mm 1,0 UV-I 403 W/m 1,8 C 14,4 C 10,9 km/h (2 Bft) 0,00 %
20.04.2015 19:00 14,2 C 45 % 1020,1 hPa 0,0 l/m 2,5 km/h (1 Bft) W-SW 1,00 h 0,000 mm 0,0 UV-I 74 W/m 2,2 C 14,2 C 4,0 km/h (1 Bft) 0,00 %
20.04.2015 20:00 12,2 C 50 % 1021,4 hPa 0,0 l/m 0,7 km/h (0 Bft) N 0,00 h 0,000 mm 0,0 UV-I 0 W/m 2,0 C 12,2 C 2,0 km/h (1 Bft) 0,00 %
20.04.2015 21:00 10,1 C 59 % 1022,7 hPa 0,0 l/m 0,0 km/h (0 Bft) N 0,00 h 0,000 mm 0,0 UV-I 0 W/m 2,4 C 10,1 C 0,0 km/h (0 Bft) 0,00 %
20.04.2015 22:00 8,8 C 65 % 1023,4 hPa 0,0 l/m 0,0 km/h (0 Bft) N 0,00 h 0,000 mm 0,0 UV-I 0 W/m 2,6 C 8,8 C 0,0 km/h (0 Bft) 0,00 %
20.04.2015 23:00 8,1 C 67 % 1024,0 hPa 0,0 l/m 0,0 km/h (0 Bft) N 0,00 h 0,000 mm 0,0 UV-I 0 W/m 2,4 C 8,1 C 0,0 km/h (0 Bft) 0,00 %
21.04.2015 00:00 7,5 C 69 % 1024,4 hPa 0,0 l/m 0,0 km/h (0 Bft) N 0,00 h 0,000 mm 0,0 UV-I 0 W/m 2,2 C 7,5 C 0,0 km/h (0 Bft) 0,00 %
21.04.2015 01:00 6,9 C 71 % 1024,5 hPa 0,0 l/m 0,0 km/h (0 Bft) N 0,00 h 0,000 mm 0,0 UV-I 0 W/m 2,1 C 6,9 C 0,0 km/h (0 Bft) 0,00 %
21.04.2015 02:00 6,1 C 76 % 1024,7 hPa 0,0 l/m 0,0 km/h (0 Bft) N 0,00 h 0,000 mm 0,0 UV-I 0 W/m 2,3 C 6,1 C 0,0 km/h (0 Bft) 0,00 %
21.04.2015 03:00 5,6 C 78 % 1025,0 hPa 0,0 l/m 0,0 km/h (0 Bft) N 0,00 h 0,000 mm 0,0 UV-I 0 W/m 2,1 C 5,6 C 0,0 km/h (0 Bft) 0,00 %
21.04.2015 04:00 5,1 C 81 % 1025,4 hPa 0,0 l/m 0,0 km/h (0 Bft) N 0,00 h 0,000 mm 0,0 UV-I 0 W/m 2,1 C 5,1 C 0,0 km/h (0 Bft) 0,00 %
21.04.2015 05:00 4,4 C 85 % 1026,1 hPa 0,0 l/m 0,0 km/h (0 Bft) N 0,00 h 0,000 mm 0,0 UV-I 0 W/m 2,0 C 4,4 C 0,0 km/h (0 Bft) 0,00 %
21.04.2015 06:00 4,8 C 84 % 1026,7 hPa 0,0 l/m 0,0 km/h (0 Bft) N 0,75 h 0,000 mm 0,0 UV-I 68 W/m 2,2 C 4,8 C 0,0 km/h (0 Bft) 0,00 %
21.04.2015 07:00 8,4 C 68 % 1025,7 hPa 0,0 l/m 0,2 km/h (0 Bft) S-SW 1,00 h 0,000 mm 1,0 UV-I 200 W/m 2,8 C 8,4 C 1,0 km/h (0 Bft) 0,00 %
21.04.2015 08:00 10,6 C 62 % 1024,9 hPa 0,0 l/m 4,8 km/h (1 Bft) S-SW 1,00 h 0,000 mm 1,7 UV-I 236 W/m 3,6 C 10,4 C 6,9 km/h (2 Bft) 0,00 %
21.04.2015 09:00 12,6 C 56 % 1024,8 hPa 0,0 l/m 2,8 km/h (1 Bft) W-SW 1,00 h 0,000 mm 2,0 UV-I 320 W/m 4,1 C 12,3 C 4,0 km/h (1 Bft) 0,00 %
21.04.2015 10:00 14,1 C 54 % 1024,3 hPa 0,0 l/m 1,7 km/h (1 Bft) W-SW 1,00 h 0,000 mm 3,7 UV-I 437 W/m 4,8 C 14,1 C 3,0 km/h (1 Bft) 0,00 %
21.04.2015 11:00 15,5 C 48 % 1023,9 hPa 0,0 l/m 6,1 km/h (2 Bft) SW 1,00 h 0,000 mm 4,7 UV-I 577 W/m 4,5 C 14,6 C 8,9 km/h (2 Bft) 0,00 %
21.04.2015 12:00 16,8 C 42 % 1023,6 hPa 0,0 l/m 6,5 km/h (2 Bft) W-SW 1,00 h 0,000 mm 5,0 UV-I 696 W/m 3,6 C 15,7 C 9,9 km/h (2 Bft) 0,00 %
21.04.2015 13:00 17,3 C 41 % 1023,2 hPa 0,0 l/m 7,2 km/h (2 Bft) W-SW 1,00 h 0,000 mm 5,3 UV-I 735 W/m 3,8 C 16,6 C 11,9 km/h (2 Bft) 0,00 %
21.04.2015 14:00 18,2 C 39 % 1022,3 hPa 0,0 l/m 9,0 km/h (2 Bft) O-NO 1,00 h 0,000 mm 4,0 UV-I 771 W/m 3,9 C 16,9 C 11,9 km/h (2 Bft) 0,00 %
21.04.2015 15:00 18,9 C 35 % 1021,2 hPa 0,0 l/m 10,5 km/h (2 Bft) SW 1,00 h 0,000 mm 2,0 UV-I 766 W/m 2,9 C 17,4 C 14,8 km/h (3 Bft) 0,00 %
21.04.2015 16:00 19,1 C 32 % 1020,8 hPa 0,0 l/m 6,8 km/h (2 Bft) W-SW 1,00 h 0,000 mm 2,0 UV-I 712 W/m 2,2 C 18,9 C 8,9 km/h (2 Bft) 0,00 %
21.04.2015 17:00 19,4 C 29 % 1020,3 hPa 0,0 l/m 9,4 km/h (2 Bft) O-NO 1,00 h 0,000 mm 1,0 UV-I 622 W/m 0,9 C 18,2 C 13,9 km/h (3 Bft) 0,00 %
21.04.2015 18:00 19,1 C 26 % 1020,2 hPa 0,0 l/m 9,2 km/h (2 Bft) W-SW 1,00 h 0,000 mm 1,0 UV-I 489 W/m -1,1 C 18,0 C 14,9 km/h (3 Bft) 0,00 %
21.04.2015 19:00 17,4 C 33 % 1021,1 hPa 0,0 l/m 7,2 km/h (2 Bft) SW 1,00 h 0,000 mm 0,0 UV-I 121 W/m 0,7 C 16,7 C 9,9 km/h (2 Bft) 0,00 %
21.04.2015 20:00 14,9 C 42 % 1022,2 hPa 0,0 l/m 3,2 km/h (1 Bft) SW 0,00 h 0,000 mm 0,0 UV-I 0 W/m 2,0 C 14,8 C 4,9 km/h (1 Bft) 0,00 %
21.04.2015 21:00 13,4 C 49 % 1023,4 hPa 0,0 l/m 0,2 km/h (0 Bft) N 0,00 h 0,000 mm 0,0 UV-I 0 W/m 2,8 C 13,4 C 1,0 km/h (0 Bft) 0,00 %
21.04.2015 22:00 12,3 C 52 % 1024,2 hPa 0,0 l/m 0,1 km/h (0 Bft) N 0,00 h 0,000 mm 0,0 UV-I 0 W/m 2,8 C 12,3 C 1,0 km/h (0 Bft) 0,00 %
21.04.2015 23:00 11,3 C 57 % 1024,4 hPa 0,0 l/m 0,2 km/h (0 Bft) N 0,00 h 0,000 mm 0,0 UV-I 0 W/m 3,1 C 11,3 C 2,0 km/h (1 Bft) 0,00 %
22.04.2015 00:00 10,6 C 58 % 1024,5 hPa 0,0 l/m 0,2 km/h (0 Bft) N 0,00 h 0,000 mm 0,0 UV-I 0 W/m 2,7 C 10,6 C 1,0 km/h (0 Bft) 0,00 %
22.04.2015 01:00 9,8 C 60 % 1024,6 hPa 0,0 l/m 0,0 km/h (0 Bft) N 0,00 h 0,000 mm 0,0 UV-I 0 W/m 2,4 C 9,8 C 0,0 km/h (0 Bft) 0,00 %
22.04.2015 02:00 9,2 C 62 % 1024,3 hPa 0,0 l/m 0,0 km/h (0 Bft) N 0,00 h 0,000 mm 0,0 UV-I 0 W/m 2,2 C 9,2 C 0,0 km/h (0 Bft) 0,00 %
22.04.2015 03:00 8,2 C 65 % 1024,1 hPa 0,0 l/m 0,1 km/h (0 Bft) N 0,00 h 0,000 mm 0,0 UV-I 0 W/m 2,0 C 8,2 C 1,0 km/h (0 Bft) 0,00 %
22.04.2015 04:00 7,6 C 68 % 1024,0 hPa 0,0 l/m 0,0 km/h (0 Bft) N 0,00 h 0,000 mm 0,0 UV-I 0 W/m 2,1 C 7,6 C 0,0 km/h (0 Bft) 0,00 %
22.04.2015 05:00 6,9 C 70 % 1023,8 hPa 0,0 l/m 0,0 km/h (0 Bft) N 0,00 h 0,000 mm 0,0 UV-I 0 W/m 1,7 C 6,9 C 0,0 km/h (0 Bft) 0,00 %
22.04.2015 06:00 7,2 C 68 % 1023,8 hPa 0,0 l/m 0,0 km/h (0 Bft) N 0,75 h 0,000 mm 0,0 UV-I 71 W/m 1,6 C 7,2 C 0,0 km/h (0 Bft) 0,00 %
22.04.2015 07:00 10,8 C 56 % 1023,5 hPa 0,0 l/m 0,3 km/h (0 Bft) S 1,00 h 0,000 mm 1,0 UV-I 205 W/m 2,4 C 10,8 C 1,0 km/h (0 Bft) 0,00 %
22.04.2015 08:00 12,5 C 52 % 1023,1 hPa 0,0 l/m 2,6 km/h (1 Bft) W-SW 1,00 h 0,000 mm 2,0 UV-I 251 W/m 2,8 C 12,5 C 4,9 km/h (1 Bft) 0,00 %
22.04.2015 09:00 14,9 C 44 % 1022,5 hPa 0,0 l/m 1,5 km/h (1 Bft) SW 0,75 h 0,000 mm 2,3 UV-I 308 W/m 2,6 C 14,9 C 3,0 km/h (1 Bft) 0,00 %
22.04.2015 10:00 16,9 C 37 % 1021,0 hPa 0,0 l/m 2,7 km/h (1 Bft) W-SW 1,00 h 0,000 mm 3,7 UV-I 459 W/m 2,2 C 16,7 C 4,0 km/h (1 Bft) 0,00 %
22.04.2015 11:00 18,3 C 31 % 1020,0 hPa 0,0 l/m 2,6 km/h (1 Bft) W 1,00 h 0,000 mm 4,7 UV-I 601 W/m 0,8 C 18,3 C 4,9 km/h (1 Bft) 0,00 %
22.04.2015 12:00 19,7 C 28 % 1018,8 hPa 0,0 l/m 1,5 km/h (1 Bft) O 1,00 h 0,000 mm 5,0 UV-I 731 W/m 0,6 C 19,7 C 3,0 km/h (1 Bft) 0,00 %
22.04.2015 13:00 20,7 C 23 % 1017,6 hPa 0,0 l/m 4,0 km/h (1 Bft) W-SW 1,00 h 0,000 mm 5,3 UV-I 832 W/m -1,3 C 20,7 C 6,0 km/h (2 Bft) 0,00 %
22.04.2015 14:00 21,5 C 23 % 1016,4 hPa 0,0 l/m 2,7 km/h (1 Bft) W-SW 1,00 h 0,000 mm 3,7 UV-I 694 W/m -0,6 C 21,5 C 5,0 km/h (1 Bft) 0,00 %
22.04.2015 15:00 19,9 C 28 % 1015,6 hPa 0,0 l/m 0,3 km/h (0 Bft) N 0,75 h 0,000 mm 2,3 UV-I 420 W/m 0,7 C 19,9 C 2,0 km/h (1 Bft) 0,00 %
22.04.2015 16:00 20,3 C 26 % 1014,8 hPa 0,0 l/m 0,2 km/h (0 Bft) NW 1,00 h 0,000 mm 2,0 UV-I 524 W/m 0,1 C 20,3 C 1,0 km/h (0 Bft) 0,00 %
22.04.2015 17:00 20,8 C 21 % 1014,0 hPa 0,0 l/m 1,1 km/h (0 Bft) O 1,00 h 0,000 mm 1,3 UV-I 618 W/m -2,4 C 20,8 C 2,0 km/h (1 Bft) 0,00 %
22.04.2015 18:00 19,7 C 28 % 1013,8 hPa 0,0 l/m 1,2 km/h (1 Bft) O 1,00 h 0,000 mm 1,0 UV-I 375 W/m 0,7 C 19,7 C 4,0 km/h (1 Bft) 0,00 %
22.04.2015 19:00 17,1 C 38 % 1014,3 hPa 0,0 l/m 2,0 km/h (1 Bft) SO 0,25 h 0,000 mm 0,0 UV-I 25 W/m 2,7 C 17,1 C 4,0 km/h (1 Bft) 0,00 %
22.04.2015 20:00 15,6 C 41 % 1014,6 hPa 0,0 l/m 2,3 km/h (1 Bft) SO 0,00 h 0,000 mm 0,0 UV-I 0 W/m 2,4 C 15,6 C 3,0 km/h (1 Bft) 0,00 %
22.04.2015 21:00 14,9 C 43 % 1014,9 hPa 0,0 l/m 5,3 km/h (1 Bft) O 0,00 h 0,000 mm 0,0 UV-I 0 W/m 2,3 C 14,2 C 7,9 km/h (2 Bft) 0,00 %
22.04.2015 22:00 13,4 C 45 % 1016,2 hPa 0,0 l/m 1,0 km/h (0 Bft) SO 0,00 h 0,000 mm 0,0 UV-I 0 W/m 1,7 C 13,4 C 1,0 km/h (0 Bft) 0,00 %
22.04.2015 23:00 12,1 C 57 % 1017,8 hPa 0,0 l/m 7,5 km/h (2 Bft) NW 0,00 h 0,000 mm 0,0 UV-I 0 W/m 3,7 C 10,3 C 11,0 km/h (2 Bft) 0,00 %
23.04.2015 00:00 9,7 C 70 % 1019,3 hPa 0,0 l/m 3,3 km/h (1 Bft) N-NO 0,00 h 0,000 mm 0,0 UV-I 0 W/m 4,3 C 9,6 C 5,9 km/h (2 Bft) 0,00 %
23.04.2015 01:00 9,4 C 71 % 1019,3 hPa 0,0 l/m 1,3 km/h (1 Bft) W-NW 0,00 h 0,000 mm 0,0 UV-I 0 W/m 4,4 C 9,4 C 4,0 km/h (1 Bft) 0,00 %
23.04.2015 02:00 8,3 C 82 % 1018,9 hPa 0,0 l/m 0,2 km/h (0 Bft) N 0,00 h 0,000 mm 0,0 UV-I 0 W/m 5,3 C 8,3 C 2,0 km/h (1 Bft) 0,00 %
23.04.2015 03:00 8,1 C 85 % 1018,8 hPa 0,0 l/m 0,0 km/h (0 Bft) N 0,00 h 0,000 mm 0,0 UV-I 0 W/m 5,8 C 8,1 C 0,0 km/h (0 Bft) 0,00 %
23.04.2015 04:00 8,0 C 88 % 1018,8 hPa 0,3 l/m 0,0 km/h (0 Bft) NW 0,00 h 0,000 mm 0,0 UV-I 0 W/m 6,1 C 8,0 C 0,0 km/h (0 Bft) 0,00 %
23.04.2015 05:00 6,8 C 95 % 1019,0 hPa 2,1 l/m 1,1 km/h (0 Bft) N 0,00 h 0,000 mm 0,0 UV-I 0 W/m 6,0 C 6,8 C 2,0 km/h (1 Bft) 0,00 %
23.04.2015 06:00 6,5 C 97 % 1018,9 hPa 0,0 l/m 0,0 km/h (0 Bft) N 0,00 h 0,000 mm 0,0 UV-I 9 W/m 6,1 C 6,5 C 0,0 km/h (0 Bft) 0,00 %
23.04.2015 07:00 6,8 C 95 % 1018,5 hPa 0,0 l/m 0,1 km/h (0 Bft) N 0,00 h 0,000 mm 1,0 UV-I 51 W/m 6,1 C 6,8 C 1,0 km/h (0 Bft) 0,00 %
23.04.2015 08:00 7,3 C 87 % 1018,2 hPa 0,0 l/m 0,0 km/h (0 Bft) N 0,00 h 0,000 mm 1,0 UV-I 123 W/m 5,3 C 7,3 C 0,0 km/h (0 Bft) 0,00 %
23.04.2015 09:00 8,5 C 81 % 1017,9 hPa 0,0 l/m 0,2 km/h (0 Bft) N 0,25 h 0,000 mm 1,7 UV-I 201 W/m 5,4 C 8,5 C 1,0 km/h (0 Bft) 0,00 %
23.04.2015 10:00 9,4 C 81 % 1017,8 hPa 0,0 l/m 0,0 km/h (0 Bft) N 0,00 h 0,000 mm 2,0 UV-I 190 W/m 6,2 C 9,4 C 0,0 km/h (0 Bft) 0,00 %
23.04.2015 11:00 8,4 C 83 % 1018,0 hPa 0,0 l/m 0,0 km/h (0 Bft) N 0,00 h 0,000 mm 1,0 UV-I 61 W/m 5,7 C 8,4 C 0,0 km/h (0 Bft) 0,00 %
23.04.2015 12:00 7,3 C 86 % 1018,3 hPa 0,3 l/m 1,5 km/h (1 Bft) SW 0,00 h 0,000 mm 1,0 UV-I 110 W/m 5,0 C 7,3 C 3,0 km/h (1 Bft) 0,00 %
23.04.2015 13:00 7,2 C 89 % 1018,4 hPa 0,0 l/m 3,7 km/h (1 Bft) W-SW 0,00 h 0,000 mm 1,0 UV-I 72 W/m 5,5 C 7,0 C 6,9 km/h (2 Bft) 0,00 %
23.04.2015 14:00 6,5 C 90 % 1018,8 hPa 0,3 l/m 0,6 km/h (0 Bft) SW 0,00 h 0,000 mm 1,0 UV-I 54 W/m 4,9 C 6,5 C 2,0 km/h (1 Bft) 0,00 %
23.04.2015 15:00 5,9 C 92 % 1019,1 hPa 0,3 l/m 1,3 km/h (1 Bft) W-NW 0,00 h 0,000 mm 1,0 UV-I 57 W/m 4,6 C 5,9 C 4,0 km/h (1 Bft) 0,00 %
23.04.2015 16:00 5,8 C 93 % 1019,2 hPa 0,9 l/m 0,2 km/h (0 Bft) N 0,00 h 0,000 mm 1,0 UV-I 54 W/m 4,8 C 5,8 C 1,0 km/h (0 Bft) 0,00 %
23.04.2015 17:00 5,7 C 94 % 1019,1 hPa 1,8 l/m 0,3 km/h (0 Bft) N 0,00 h 0,000 mm 0,0 UV-I 36 W/m 4,9 C 5,7 C 2,0 km/h (1 Bft) 0,00 %
23.04.2015 18:00 5,9 C 94 % 1018,7 hPa 0,3 l/m 0,0 km/h (0 Bft) N 0,00 h 0,000 mm 0,0 UV-I 28 W/m 5,0 C 5,9 C 0,0 km/h (0 Bft) 0,00 %
23.04.2015 19:00 5,9 C 94 % 1018,0 hPa 0,0 l/m 4,1 km/h (1 Bft) O-SO 0,00 h 0,000 mm 0,0 UV-I 5 W/m 5,0 C 5,3 C 6,9 km/h (2 Bft) 0,00 %
23.04.2015 20:00 5,6 C 97 % 1017,9 hPa 0,0 l/m 0,6 km/h (0 Bft) N 0,00 h 0,000 mm 0,0 UV-I 0 W/m 5,1 C 5,6 C 2,0 km/h (1 Bft) 0,00 %
23.04.2015 21:00 5,4 C 98 % 1017,8 hPa 0,0 l/m 1,7 km/h (1 Bft) O 0,00 h 0,000 mm 0,0 UV-I 0 W/m 5,1 C 5,3 C 2,0 km/h (1 Bft) 0,00 %
23.04.2015 22:00 5,2 C 99 % 1017,6 hPa 0,0 l/m 0,0 km/h (0 Bft) N 0,00 h 0,000 mm 0,0 UV-I 0 W/m 5,1 C 5,2 C 0,0 km/h (0 Bft) 0,00 %
23.04.2015 23:00 5,2 C 99 % 1017,4 hPa 0,0 l/m 0,0 km/h (0 Bft) N 0,00 h 0,000 mm 0,0 UV-I 0 W/m 5,0 C 5,2 C 0,0 km/h (0 Bft) 0,00 %
24.04.2015 00:00 5,1 C 99 % 1017,3 hPa 0,0 l/m 0,0 km/h (0 Bft) N 0,00 h 0,000 mm 0,0 UV-I 0 W/m 5,0 C 5,1 C 0,0 km/h (0 Bft) 0,00 %
24.04.2015 01:00 5,0 C 99 % 1017,1 hPa 0,0 l/m 0,0 km/h (0 Bft) N 0,00 h 0,000 mm 0,0 UV-I 0 W/m 4,8 C 5,0 C 0,0 km/h (0 Bft) 0,00 %
24.04.2015 02:00 5,1 C 99 % 1016,7 hPa 0,0 l/m 0,0 km/h (0 Bft) N 0,00 h 0,000 mm 0,0 UV-I 0 W/m 5,0 C 5,1 C 0,0 km/h (0 Bft) 0,00 %
24.04.2015 03:00 4,9 C 99 % 1016,5 hPa 0,0 l/m 0,0 km/h (0 Bft) N 0,00 h 0,000 mm 0,0 UV-I 0 W/m 4,7 C 4,9 C 0,0 km/h (0 Bft) 0,00 %
24.04.2015 04:00 4,4 C 99 % 1016,6 hPa 0,0 l/m 0,0 km/h (0 Bft) N 0,00 h 0,000 mm 0,0 UV-I 0 W/m 4,3 C 4,4 C 0,0 km/h (0 Bft) 0,00 %
24.04.2015 05:00 4,4 C 99 % 1016,4 hPa 0,0 l/m 0,0 km/h (0 Bft) N 0,00 h 0,000 mm 0,0 UV-I 0 W/m 4,2 C 4,4 C 0,0 km/h (0 Bft) 0,00 %
24.04.2015 06:00 4,3 C 99 % 1017,3 hPa 0,0 l/m 0,0 km/h (0 Bft) N 0,00 h 0,000 mm 0,0 UV-I 17 W/m 4,2 C 4,3 C 0,0 km/h (0 Bft) 0,00 %
24.04.2015 07:00 4,4 C 99 % 1017,7 hPa 0,0 l/m 0,0 km/h (0 Bft) N 0,25 h 0,000 mm 1,0 UV-I 116 W/m 4,3 C 4,4 C 0,0 km/h (0 Bft) 0,00 %
24.04.2015 08:00 5,9 C 98 % 1017,7 hPa 0,0 l/m 0,0 km/h (0 Bft) W-SW 0,25 h 0,000 mm 1,7 UV-I 194 W/m 5,6 C 5,9 C 0,0 km/h (0 Bft) 0,00 %
24.04.2015 09:00 8,5 C 85 % 1017,4 hPa 0,0 l/m 0,7 km/h (0 Bft) N 0,50 h 0,000 mm 2,7 UV-I 304 W/m 6,1 C 8,5 C 1,0 km/h (0 Bft) 0,00 %
24.04.2015 10:00 10,3 C 76 % 1017,0 hPa 0,0 l/m 0,9 km/h (0 Bft) SW 1,00 h 0,000 mm 4,0 UV-I 455 W/m 6,2 C 10,3 C 2,0 km/h (1 Bft) 0,00 %
24.04.2015 11:00 11,6 C 67 % 1015,7 hPa 0,0 l/m 0,1 km/h (0 Bft) NW 1,00 h 0,000 mm 4,7 UV-I 572 W/m 5,7 C 11,6 C 1,0 km/h (0 Bft) 0,00 %
24.04.2015 12:00 12,7 C 60 % 1015,0 hPa 0,0 l/m 2,1 km/h (1 Bft) NW 1,00 h 0,000 mm 5,0 UV-I 671 W/m 5,2 C 12,4 C 3,0 km/h (1 Bft) 0,00 %
24.04.2015 13:00 14,2 C 59 % 1014,1 hPa 0,0 l/m 2,1 km/h (1 Bft) S-SO 1,00 h 0,000 mm 5,0 UV-I 728 W/m 6,3 C 14,2 C 5,0 km/h (1 Bft) 0,00 %
24.04.2015 14:00 16,1 C 48 % 1012,9 hPa 0,0 l/m 0,0 km/h (0 Bft) N 1,00 h 0,000 mm 4,3 UV-I 776 W/m 4,9 C 16,1 C 0,0 km/h (0 Bft) 0,00 %
24.04.2015 15:00 17,4 C 45 % 1012,0 hPa 0,0 l/m 2,4 km/h (1 Bft) O-SO 1,00 h 0,000 mm 2,0 UV-I 775 W/m 5,3 C 17,4 C 3,0 km/h (1 Bft) 0,00 %
24.04.2015 16:00 17,1 C 47 % 1011,4 hPa 0,0 l/m 0,4 km/h (0 Bft) N 1,00 h 0,000 mm 2,0 UV-I 710 W/m 5,7 C 17,1 C 1,0 km/h (0 Bft) 0,00 %
24.04.2015 17:00 17,2 C 44 % 1011,1 hPa 0,0 l/m 1,1 km/h (0 Bft) O 1,00 h 0,000 mm 1,0 UV-I 617 W/m 4,9 C 17,2 C 2,0 km/h (1 Bft) 0,00 %
24.04.2015 18:00 16,7 C 44 % 1011,1 hPa 0,0 l/m 1,6 km/h (1 Bft) O-SO 1,00 h 0,000 mm 1,0 UV-I 442 W/m 4,5 C 16,7 C 2,0 km/h (1 Bft) 0,00 %
24.04.2015 19:00 15,5 C 52 % 1011,4 hPa 0,0 l/m 0,0 km/h (0 Bft) N 1,00 h 0,000 mm 0,0 UV-I 111 W/m 5,6 C 15,5 C 0,0 km/h (0 Bft) 0,00 %
24.04.2015 20:00 12,8 C 62 % 1012,3 hPa 0,0 l/m 0,0 km/h (0 Bft) N 0,00 h 0,000 mm 0,0 UV-I 0 W/m 5,6 C 12,8 C 0,0 km/h (0 Bft) 0,00 %
24.04.2015 21:00 10,4 C 71 % 1013,0 hPa 0,0 l/m 0,0 km/h (0 Bft) N 0,00 h 0,000 mm 0,0 UV-I 0 W/m 5,4 C 10,4 C 0,0 km/h (0 Bft) 0,00 %
24.04.2015 22:00 9,6 C 74 % 1013,1 hPa 0,0 l/m 0,0 km/h (0 Bft) N 0,00 h 0,000 mm 0,0 UV-I 0 W/m 5,1 C 9,6 C 0,0 km/h (0 Bft) 0,00 %
24.04.2015 23:00 7,9 C 82 % 1013,3 hPa 0,0 l/m 0,0 km/h (0 Bft) N 0,00 h 0,000 mm 0,0 UV-I 0 W/m 5,0 C 7,9 C 0,0 km/h (0 Bft) 0,00 %
25.04.2015 00:00 7,4 C 86 % 1013,4 hPa 0,0 l/m 0,0 km/h (0 Bft) N 0,00 h 0,000 mm 0,0 UV-I 0 W/m 5,1 C 7,4 C 0,0 km/h (0 Bft) 0,00 %
25.04.2015 01:00 6,1 C 91 % 1013,6 hPa 0,0 l/m 0,0 km/h (0 Bft) N 0,00 h 0,000 mm 0,0 UV-I 0 W/m 4,7 C 6,1 C 0,0 km/h (0 Bft) 0,00 %
25.04.2015 02:00 5,4 C 92 % 1013,3 hPa 0,0 l/m 0,0 km/h (0 Bft) N 0,00 h 0,000 mm 0,0 UV-I 0 W/m 4,2 C 5,4 C 0,0 km/h (0 Bft) 0,00 %
25.04.2015 03:00 4,6 C 96 % 1013,3 hPa 0,0 l/m 0,0 km/h (0 Bft) N 0,00 h 0,000 mm 0,0 UV-I 0 W/m 4,0 C 4,6 C 0,0 km/h (0 Bft) 0,00 %
25.04.2015 04:00 4,2 C 97 % 1013,3 hPa 0,0 l/m 0,0 km/h (0 Bft) N 0,00 h 0,000 mm 0,0 UV-I 0 W/m 3,7 C 4,2 C 0,0 km/h (0 Bft) 0,00 %
25.04.2015 05:00 3,6 C 99 % 1013,1 hPa 0,0 l/m 0,0 km/h (0 Bft) N 0,00 h 0,000 mm 0,0 UV-I 0 W/m 3,4 C 3,6 C 0,0 km/h (0 Bft) 0,00 %
25.04.2015 06:00 4,9 C 98 % 1013,1 hPa 0,0 l/m 0,0 km/h (0 Bft) N 0,75 h 0,000 mm 1,0 UV-I 75 W/m 4,5 C 4,9 C 0,0 km/h (0 Bft) 0,00 %
25.04.2015 07:00 8,9 C 81 % 1012,7 hPa 0,0 l/m 0,0 km/h (0 Bft) N 1,00 h 0,000 mm 1,0 UV-I 234 W/m 5,7 C 8,9 C 0,0 km/h (0 Bft) 0,00 %
25.04.2015 08:00 9,9 C 76 % 1012,4 hPa 0,0 l/m 2,3 km/h (1 Bft) O-SO 1,00 h 0,000 mm 2,0 UV-I 280 W/m 5,9 C 9,9 C 4,0 km/h (1 Bft) 0,00 %
25.04.2015 09:00 12,6 C 65 % 1011,9 hPa 0,0 l/m 0,3 km/h (0 Bft) SO 1,00 h 0,000 mm 3,0 UV-I 374 W/m 6,1 C 12,6 C 1,0 km/h (0 Bft) 0,00 %
25.04.2015 10:00 14,3 C 64 % 1011,3 hPa 0,0 l/m 1,5 km/h (1 Bft) O-SO 1,00 h 0,000 mm 4,0 UV-I 489 W/m 7,5 C 14,3 C 2,0 km/h (1 Bft) 0,00 %
25.04.2015 11:00 16,6 C 55 % 1010,6 hPa 0,0 l/m 0,0 km/h (0 Bft) O 1,00 h 0,000 mm 4,7 UV-I 606 W/m 7,5 C 16,6 C 0,0 km/h (0 Bft) 0,00 %
25.04.2015 12:00 18,6 C 50 % 1009,8 hPa 0,0 l/m 2,1 km/h (1 Bft) O-NO 1,00 h 0,000 mm 5,3 UV-I 756 W/m 8,0 C 18,6 C 4,0 km/h (1 Bft) 0,00 %
25.04.2015 13:00 20,7 C 40 % 1009,0 hPa 0,0 l/m 0,3 km/h (0 Bft) O-SO 1,00 h 0,000 mm 4,7 UV-I 710 W/m 6,5 C 20,7 C 1,0 km/h (0 Bft) 0,00 %
25.04.2015 14:00 22,1 C 29 % 1008,2 hPa 0,0 l/m 2,2 km/h (1 Bft) NW 1,00 h 0,000 mm 3,7 UV-I 719 W/m 3,0 C 22,1 C 4,0 km/h (1 Bft) 0,00 %
25.04.2015 15:00 22,9 C 24 % 1007,5 hPa 0,0 l/m 0,4 km/h (0 Bft) W-NW 0,75 h 0,000 mm 2,0 UV-I 746 W/m 1,1 C 22,9 C 1,0 km/h (0 Bft) 0,00 %
25.04.2015 16:00 23,2 C 23 % 1007,0 hPa 0,0 l/m 2,6 km/h (1 Bft) W-NW 1,00 h 0,000 mm 2,0 UV-I 623 W/m 1,1 C 23,0 C 5,0 km/h (1 Bft) 0,00 %
25.04.2015 17:00 22,0 C 27 % 1007,2 hPa 0,0 l/m 2,5 km/h (1 Bft) W-SW 1,00 h 0,000 mm 1,0 UV-I 364 W/m 2,0 C 22,0 C 4,0 km/h (1 Bft) 0,00 %
25.04.2015 18:00 20,3 C 33 % 1007,5 hPa 0,0 l/m 0,0 km/h (0 Bft) N 0,00 h 0,000 mm 1,0 UV-I 118 W/m 3,4 C 20,3 C 0,0 km/h (0 Bft) 0,00 %
25.04.2015 19:00 18,5 C 41 % 1008,0 hPa 0,0 l/m 0,2 km/h (0 Bft) N 0,00 h 0,000 mm 0,0 UV-I 22 W/m 5,1 C 18,5 C 1,0 km/h (0 Bft) 0,00 %
25.04.2015 20:00 17,0 C 51 % 1008,7 hPa 0,0 l/m 0,0 km/h (0 Bft) N 0,00 h 0,000 mm 0,0 UV-I 0 W/m 6,6 C 17,0 C 0,0 km/h (0 Bft) 0,00 %
25.04.2015 21:00 15,7 C 58 % 1009,3 hPa 0,0 l/m 0,0 km/h (0 Bft) N 0,00 h 0,000 mm 0,0 UV-I 0 W/m 7,4 C 15,7 C 0,0 km/h (0 Bft) 0,00 %
25.04.2015 22:00 15,1 C 60 % 1009,6 hPa 0,0 l/m 0,0 km/h (0 Bft) W-SW 0,00 h 0,000 mm 0,0 UV-I 0 W/m 7,3 C 15,1 C 0,0 km/h (0 Bft) 0,00 %
25.04.2015 23:00 15,2 C 60 % 1010,0 hPa 0,0 l/m 7,4 km/h (2 Bft) SW 0,00 h 0,000 mm 0,0 UV-I 0 W/m 7,5 C 14,4 C 9,9 km/h (2 Bft) 0,00 %
26.04.2015 00:00 14,5 C 67 % 1010,7 hPa 0,0 l/m 4,4 km/h (1 Bft) S-SW 0,00 h 0,000 mm 0,0 UV-I 0 W/m 8,4 C 13,9 C 7,9 km/h (2 Bft) 0,00 %
26.04.2015 01:00 13,5 C 76 % 1010,8 hPa 0,0 l/m 0,8 km/h (0 Bft) W-SW 0,00 h 0,000 mm 0,0 UV-I 0 W/m 9,3 C 13,5 C 2,0 km/h (1 Bft) 0,00 %
26.04.2015 02:00 12,6 C 83 % 1010,7 hPa 0,0 l/m 0,0 km/h (0 Bft) N 0,00 h 0,000 mm 0,0 UV-I 0 W/m 9,8 C 12,6 C 0,0 km/h (0 Bft) 0,00 %
26.04.2015 03:00 12,0 C 86 % 1010,7 hPa 0,0 l/m 0,0 km/h (0 Bft) N 0,00 h 0,000 mm 0,0 UV-I 0 W/m 9,7 C 12,0 C 0,0 km/h (0 Bft) 0,00 %
26.04.2015 04:00 11,8 C 86 % 1010,4 hPa 0,0 l/m 0,0 km/h (0 Bft) N 0,00 h 0,000 mm 0,0 UV-I 0 W/m 9,5 C 11,8 C 0,0 km/h (0 Bft) 0,00 %
26.04.2015 05:00 11,8 C 86 % 1010,8 hPa 0,0 l/m 1,1 km/h (1 Bft) SW 0,00 h 0,000 mm 0,0 UV-I 0 W/m 9,6 C 11,8 C 3,0 km/h (1 Bft) 0,00 %
26.04.2015 06:00 12,4 C 83 % 1011,2 hPa 0,0 l/m 0,1 km/h (0 Bft) N 0,00 h 0,000 mm 0,0 UV-I 14 W/m 9,6 C 12,4 C 1,0 km/h (0 Bft) 0,00 %
26.04.2015 07:00 12,7 C 83 % 1011,3 hPa 0,0 l/m 0,0 km/h (0 Bft) N 0,00 h 0,000 mm 1,0 UV-I 52 W/m 9,9 C 12,7 C 0,0 km/h (0 Bft) 0,00 %
26.04.2015 08:00 13,4 C 81 % 1011,1 hPa 0,0 l/m 0,0 km/h (0 Bft) N 0,00 h 0,000 mm 1,3 UV-I 122 W/m 10,2 C 13,4 C 0,0 km/h (0 Bft) 0,00 %
26.04.2015 09:00 14,8 C 72 % 1010,8 hPa 0,0 l/m 0,4 km/h (0 Bft) W-SW 0,25 h 0,000 mm 1,3 UV-I 192 W/m 9,7 C 14,8 C 2,0 km/h (1 Bft) 0,00 %
26.04.2015 10:00 15,8 C 66 % 1010,3 hPa 0,0 l/m 0,9 km/h (0 Bft) W 0,00 h 0,000 mm 2,0 UV-I 275 W/m 9,4 C 15,8 C 2,0 km/h (1 Bft) 0,00 %
26.04.2015 11:00 18,1 C 56 % 1009,7 hPa 0,0 l/m 0,3 km/h (0 Bft) W-SW 0,50 h 0,000 mm 4,3 UV-I 564 W/m 9,2 C 18,1 C 1,0 km/h (0 Bft) 0,00 %
26.04.2015 12:00 19,3 C 53 % 1008,8 hPa 0,0 l/m 2,5 km/h (1 Bft) NW 0,50 h 0,000 mm 5,7 UV-I 543 W/m 9,4 C 19,3 C 4,0 km/h (1 Bft) 0,00 %
26.04.2015 13:00 20,5 C 48 % 1007,6 hPa 0,0 l/m 1,6 km/h (1 Bft) O-NO 1,00 h 0,000 mm 5,7 UV-I 839 W/m 9,0 C 20,5 C 4,0 km/h (1 Bft) 0,00 %
26.04.2015 14:00 20,2 C 46 % 1006,7 hPa 0,0 l/m 5,2 km/h (1 Bft) S-SW 0,50 h 0,000 mm 3,7 UV-I 511 W/m 8,3 C 19,7 C 7,9 km/h (2 Bft) 0,00 %
26.04.2015 15:00 21,3 C 42 % 1005,8 hPa 0,0 l/m 0,9 km/h (0 Bft) N 0,75 h 0,000 mm 2,0 UV-I 852 W/m 7,7 C 21,3 C 2,0 km/h (1 Bft) 0,00 %
26.04.2015 16:00 21,1 C 42 % 1005,2 hPa 0,0 l/m 1,4 km/h (1 Bft) SO 0,50 h 0,000 mm 2,0 UV-I 559 W/m 7,5 C 21,1 C 3,0 km/h (1 Bft) 0,00 %
26.04.2015 17:00 21,0 C 41 % 1004,7 hPa 0,0 l/m 0,5 km/h (0 Bft) SO 1,00 h 0,000 mm 1,3 UV-I 453 W/m 7,2 C 21,0 C 2,0 km/h (1 Bft) 0,00 %
26.04.2015 18:00 20,0 C 47 % 1004,3 hPa 0,0 l/m 0,0 km/h (0 Bft) N 1,00 h 0,000 mm 1,0 UV-I 177 W/m 8,4 C 20,0 C 0,0 km/h (0 Bft) 0,00 %
26.04.2015 19:00 18,2 C 56 % 1004,3 hPa 0,0 l/m 0,0 km/h (0 Bft) N 0,00 h 0,000 mm 0,0 UV-I 35 W/m 9,2 C 18,2 C 0,0 km/h (0 Bft) 0,00 %
26.04.2015 20:00 16,5 C 61 % 1004,3 hPa 0,0 l/m 0,0 km/h (0 Bft) N 0,00 h 0,000 mm 0,0 UV-I 0 W/m 9,0 C 16,5 C 0,0 km/h (0 Bft) 0,00 %
26.04.2015 21:00 15,3 C 65 % 1004,4 hPa 0,0 l/m 0,0 km/h (0 Bft) N 0,00 h 0,000 mm 0,0 UV-I 0 W/m 8,7 C 15,3 C 0,0 km/h (0 Bft) 0,00 %
26.04.2015 22:00 15,1 C 65 % 1004,0 hPa 0,0 l/m 0,2 km/h (0 Bft) N 0,00 h 0,000 mm 0,0 UV-I 0 W/m 8,5 C 15,1 C 1,0 km/h (0 Bft) 0,00 %
26.04.2015 23:00 13,5 C 74 % 1003,6 hPa 0,0 l/m 0,2 km/h (0 Bft) N 0,00 h 0,000 mm 0,0 UV-I 0 W/m 8,9 C 13,5 C 1,0 km/h (0 Bft) 0,00 %
Min-Datum _ 20.04.15 22.04.15 26.04.15 - 20.04.15 - - - - - 22.04.15 20.04.15 20.04.15 20.04.15
_ Min-Zeit 05:15 17:45 23:00 - 00:00 - - - - - 17:45 05:15 00:00 00:00
Minimum _ 0,8 C 18 % 1003,5 hPa - 0,0 km/h (0 Bft) - - - - - -3,8 C 0,8 C 0,0 km/h (0 Bft) 0,00 %
Max-Datum _ 25.04.15 23.04.15 21.04.15 23.04.15 20.04.15 - 20.04.15 20.04.15 21.04.15 26.04.15 26.04.15 25.04.15 20.04.15 20.04.15
_ Max-Zeit 16:00 20:45 06:30 05:00 14:30 - 06:30 00:00 13:15 12:30 08:15 16:30 14:30 00:00
Maximum _ 23,8 C 99 % 1027,0 hPa 2,1 l/m 19,4 km/h
W-SW (3 Bft)
- 0,25 h 0,000 mm 6,0 UV-I 968 W/m 10,4 C 23,5 C 24,1 km/h
W-SW (4 Bft)
0,00 %
Durchschnitt _ 11,9 C 65 % 1016,6 hPa #6,3 l/m 1,5 km/h (1 Bft) W-SW #68:00 h #0,000 mm 2,6 UV-I 388 W/m 4,3 C 11,8 C 2,5 km/h (1 Bft) 0,00 %